Stuyvesant — WNFX — position and weather

sailwx.info

Track history (hours):
 
Tides and Currents Weather Stations Pressure Air Temp Water Temp Dewpoint Dewpoint Depression Visibility Wind Speed Wind Dir Waves Ship Positions

Stuyvesant

Owner: THE DUTRA GROUP, SAN RAFAEL, CA. More information available from US FCC via Universal Licensing System and Coast Guard Vessel Documentation Center.

Last reported at 2017-May-27 00:30 UTC. Time now 2017-May-27 00:37 UTC.
Position N 36°55' W 075°57'.

Length 122 m; draft 10 m.

Type: Dredging. MMSI: 368098000.

Date/timePositionNaut miles runAvg speedWind from/ knotsBaromVisibWave heightAir tempDewpointWater temp
2017-May-27 00:30N 36°55' W 075°57'511.0
2017-May-27 00:00N 36°51' W 075°53'0 0.3
2017-May-26 23:30N 36°51' W 075°53'510.2
2017-May-26 23:00N 36°55' W 075°57'611.8
2017-May-26 22:30N 36°58' W 076°04'6 9.9
2017-May-26 21:57N 36°59' W 076°10'1 1.6
2017-May-26 21:28N 36°59' W 076°09'0 0.9
2017-May-26 21:00N 36°59' W 076°09'1 1.2
2017-May-26 20:25N 36°59' W 076°08'10 8.6
2017-May-26 19:18N 36°58' W 076°20'1 3.8
2017-May-26 19:00N 36°57' W 076°21'0 0.0
2017-May-26 18:28N 36°57' W 076°21'0 0.0
2017-May-26 16:31N 36°57' W 076°21'0 0.1
2017-May-26 16:25N 36°57' W 076°21'0 0.0
2017-May-26 15:58N 36°57' W 076°21'0 0.0
2017-May-26 14:25N 36°57' W 076°21'0 0.0
2017-May-26 12:01N 36°57' W 076°21'0 0.0
2017-May-26 11:31N 36°57' W 076°21'0 0.0
2017-May-26 11:19N 36°57' W 076°21'0 0.1
2017-May-26 10:58N 36°57' W 076°21'0 0.0
2017-May-26 10:22N 36°57' W 076°21'0 0.5
2017-May-26 09:58N 36°58' W 076°21'8 6.9
2017-May-26 08:44N 36°59' W 076°10'2 8.5
2017-May-26 08:28N 36°59' W 076°08'4 8.3
2017-May-26 08:00N 36°57' W 076°03'4 8.0
2017-May-26 07:31N 36°56' W 075°58'4 8.1
2017-May-26 07:00N 36°53' W 075°55'4 7.9
2017-May-26 06:30N 36°49' W 075°53'3 5.1
2017-May-26 05:59N 36°52' W 075°54'5 9.4
2017-May-26 05:30N 36°55' W 075°58'610.7
2017-May-26 04:59N 36°58' W 076°04'3 5.8
2017-May-26 04:30N 36°59' W 076°07'2 0.9
2017-May-26 01:51N 36°59' W 076°10'3 9.5
2017-May-26 01:31N 36°58' W 076°06'610.9
2017-May-26 00:57N 36°56' W 075°59'510.9
2017-May-26 00:30N 36°53' W 075°55'4 7.8
2017-May-26 00:00N 36°49' W 075°53'4 8.4
2017-May-25 23:30N 36°53' W 075°55'4 8.9
2017-May-25 23:00N 36°56' W 075°59'5 9.3
2017-May-25 22:30N 36°58' W 076°05'5 9.2
2017-May-25 22:00N 36°59' W 076°10'0 0.2
2017-May-25 21:30N 36°59' W 076°10'1 1.4
2017-May-25 21:00N 36°59' W 076°09'1 1.8
2017-May-25 20:29N 36°59' W 076°08'1 1.8
2017-May-25 20:00N 36°59' W 076°07'4 8.4
2017-May-25 19:30N 36°57' W 076°02'5 9.1
2017-May-25 19:00N 36°55' W 075°57'510.2
2017-May-25 18:31N 36°51' W 075°53'1 1.3
2017-May-25 18:00N 36°51' W 075°53'511.2
2017-May-25 17:30N 36°55' W 075°57'612.4
2017-May-25 17:00N 36°58' W 076°04'510.7
2017-May-25 16:31N 36°59' W 076°10'1 1.2
2017-May-25 16:00N 36°59' W 076°09'1 1.6
2017-May-25 15:26N 36°59' W 076°08'1 2.2
2017-May-25 14:59N 36°59' W 076°09'7 7.0
2017-May-25 14:00N 36°57' W 076°01'612.5
2017-May-25 13:30N 36°53' W 075°55'4 8.6
2017-May-25 13:00N 36°49' W 075°53'4 8.4
2017-May-25 12:30N 36°53' W 075°55'4 8.7
2017-May-25 12:01N 36°56' W 075°59'4 7.6
2017-May-25 11:30N 36°57' W 076°03'5 8.3
2017-May-25 10:53N 36°59' W 076°09'0 1.3
2017-May-25 10:31N 36°59' W 076°10'1 2.0
2017-May-25 10:01N 36°59' W 076°09'1 2.4
2017-May-25 09:30N 36°59' W 076°07'4 8.4
2017-May-25 09:01N 36°57' W 076°02'510.3
2017-May-25 08:30N 36°54' W 075°57'6 9.3
2017-May-25 07:53N 36°50' W 075°53'2 4.0
2017-May-25 07:25N 36°51' W 075°54'4 9.5
2017-May-25 07:00N 36°54' W 075°57'510.6
2017-May-25 06:30N 36°57' W 076°02'5 3.3
2017-May-25 05:04N 36°59' W 076°08'0 1.1
2017-May-25 05:00N 36°59' W 076°08'1 1.9
2017-May-25 04:27N 36°59' W 076°09'1 1.9
2017-May-25 04:00N 36°59' W 076°10'3 6.8
2017-May-25 03:30N 36°58' W 076°06'611.9
2017-May-25 03:00N 36°56' W 075°59'612.0
2017-May-25 02:31N 36°52' W 075°54'1 1.7
2017-May-25 02:00N 36°51' W 075°53'5 9.7
2017-May-25 01:30N 36°55' W 075°57'5 9.9
2017-May-25 01:00N 36°57' W 076°03'7 9.0
2017-May-25 00:14N 36°60' W 076°11'0 1.2
2017-May-25 00:00N 36°59' W 076°10'1 2.1
2017-May-24 23:30N 36°59' W 076°09'1 1.3
2017-May-24 22:58N 36°59' W 076°10'3 7.5
2017-May-24 22:31N 36°58' W 076°06'612.0
2017-May-24 22:00N 36°56' W 075°59'510.3
2017-May-24 21:30N 36°52' W 075°54'3 6.2
2017-May-24 21:00N 36°50' W 075°53'5 9.1
2017-May-24 20:31N 36°54' W 075°56'510.1
2017-May-24 20:00N 36°57' W 076°01'510.1
2017-May-24 19:29N 36°58' W 076°07'3 4.8
2017-May-24 18:56N 36°59' W 076°10'1 1.6
2017-May-24 18:30N 36°59' W 076°09'1 1.6
2017-May-24 18:01N 36°59' W 076°10'1 1.2
2017-May-24 17:30N 36°59' W 076°09'1 1.9
2017-May-24 17:00N 36°59' W 076°08'1 2.1
2017-May-24 16:30N 36°59' W 076°07'4 7.5
2017-May-24 16:00N 36°57' W 076°03'5 9.9
2017-May-24 15:31N 36°55' W 075°57'5 9.6
2017-May-24 15:00N 36°51' W 075°53'0 0.2
2017-May-24 14:25N 36°51' W 075°53'9 9.6
2017-May-24 13:30N 36°57' W 076°01'5 9.3
2017-May-24 13:00N 36°58' W 076°07'2 3.9
2017-May-24 12:31N 36°59' W 076°09'1 1.5
2017-May-24 11:58N 36°59' W 076°10'1 2.1
2017-May-24 11:25N 36°59' W 076°09'0 1.0
2017-May-24 10:58N 36°59' W 076°09'0 1.0
2017-May-24 10:30N 36°59' W 076°10'611.6
2017-May-24 10:00N 36°57' W 076°03'510.8
2017-May-24 09:30N 36°55' W 075°57'5 9.8
2017-May-24 08:58N 36°51' W 075°53'1 0.9
2017-May-24 08:17N 36°51' W 075°53'3 9.4
2017-May-24 08:00N 36°53' W 075°55'510.6
2017-May-24 07:30N 36°57' W 076°00'510.5
2017-May-24 06:59N 36°58' W 076°07'2 2.1
2017-May-24 05:49N 36°59' W 076°10'1 1.9
2017-May-24 05:30N 36°59' W 076°09'1 2.1
2017-May-24 04:56N 36°59' W 076°08'2 3.5
2017-May-24 04:30N 36°58' W 076°06'510.0
2017-May-24 04:00N 36°57' W 075°60'5 9.6
2017-May-24 03:29N 36°53' W 075°55'4 8.2
2017-May-24 02:59N 36°50' W 075°53'2 4.3
2017-May-24 02:30N 36°52' W 075°54'4 8.1
2017-May-24 02:00N 36°55' W 075°57'5 9.4
2017-May-24 01:30N 36°57' W 076°02'6 4.3
2017-May-24 00:13N 36°59' W 076°08'0 1.4
2017-May-24 00:00N 36°59' W 076°09'1 1.6
2017-May-23 23:30N 36°59' W 076°10'3 6.2
2017-May-23 23:01N 36°58' W 076°06'612.8
2017-May-23 22:30N 36°56' W 075°58'611.9
2017-May-23 22:00N 36°52' W 075°54'1 1.0
2017-May-23 21:24N 36°51' W 075°53'3 8.1
2017-May-23 21:00N 36°54' W 075°56'4 8.3
2017-May-23 20:30N 36°56' W 075°60'4 9.2
2017-May-23 20:00N 36°58' W 076°05'4 8.5
2017-May-23 19:29N 36°59' W 076°10'1 1.2
2017-May-23 19:00N 36°59' W 076°10'1 1.9
2017-May-23 18:30N 36°59' W 076°08'1 2.0
2017-May-23 18:00N 36°59' W 076°07'3 6.1
2017-May-23 17:30N 36°58' W 076°04'510.0
2017-May-23 17:00N 36°55' W 075°58'510.2
2017-May-23 16:30N 36°52' W 075°54'2 3.9
2017-May-23 16:00N 36°50' W 075°53'4 8.8
2017-May-23 15:30N 36°54' W 075°56'510.9
2017-May-23 15:00N 36°57' W 076°01'510.0
2017-May-23 14:29N 36°59' W 076°07'0 0.4
2017-May-23 13:31N 36°59' W 076°08'1 1.5
2017-May-23 13:00N 36°59' W 076°09'1 1.5
2017-May-23 12:31N 36°59' W 076°10'0 0.6
2017-May-23 12:00N 36°59' W 076°09'612.3
2017-May-23 11:30N 36°57' W 076°02'611.3
2017-May-23 11:01N 36°54' W 075°56'5 9.7
2017-May-23 10:30N 36°50' W 075°53'2 4.9
2017-May-23 10:00N 36°52' W 075°54'5 9.2
2017-May-23 09:27N 36°56' W 075°58'510.2
2017-May-23 09:00N 36°58' W 076°04'3 1.4
2017-May-23 06:45N 36°59' W 076°08'310.1
2017-May-23 06:29N 36°58' W 076°04'5 9.6
2017-May-23 06:00N 36°56' W 075°59'4 8.0
2017-May-23 05:30N 36°53' W 075°55'4 8.1
2017-May-23 05:00N 36°50' W 075°53'2 2.9
2017-May-23 04:23N 36°52' W 075°54'4 9.5
2017-May-23 04:00N 36°54' W 075°57'511.0
2017-May-23 03:31N 36°57' W 076°02'7 2.4
2017-May-23 00:45N 36°59' W 076°10'4 9.8
2017-May-23 00:23N 36°58' W 076°06'411.5
2017-May-23 00:00N 36°57' W 076°01'510.8
2017-May-22 23:30N 36°53' W 075°55'4 8.8
2017-May-22 23:00N 36°50' W 075°53'3 6.0
2017-May-22 22:26N 36°53' W 075°55'4 9.5
2017-May-22 22:00N 36°56' W 075°58'5 9.6
2017-May-22 21:30N 36°58' W 076°04'5 3.0
2017-May-22 19:46N 36°59' W 076°10'2 7.7
2017-May-22 19:29N 36°59' W 076°07'712.2
2017-May-22 18:56N 36°56' W 075°59'510.5
2017-May-22 18:30N 36°53' W 075°55'4 7.8
2017-May-22 17:59N 36°50' W 075°53'4 7.0
2017-May-22 17:29N 36°53' W 075°55'510.4
2017-May-22 17:00N 36°56' W 075°59'611.0
2017-May-22 16:25N 36°58' W 076°07'2 3.3
2017-May-22 15:53N 36°59' W 076°09'1 2.2
2017-May-22 15:23N 36°59' W 076°10'1 1.3
2017-May-22 14:59N 36°59' W 076°10'3 2.9
2017-May-22 13:59N 36°58' W 076°06'510.2
2017-May-22 13:30N 36°57' W 076°00'610.6
2017-May-22 12:59N 36°53' W 075°55'1 1.5
2017-May-22 12:03N 36°52' W 075°54'2 8.7
2017-May-22 11:48N 36°53' W 075°56'3 9.3
2017-May-22 11:30N 36°56' W 075°58'5 9.9
2017-May-22 10:58N 36°58' W 076°04'3 5.4
2017-May-22 10:29N 36°59' W 076°07'1 0.3
2017-May-22 08:31N 36°59' W 076°08'011.7
2017-May-22 08:29N 36°59' W 076°07'612.4
2017-May-22 07:59N 36°56' W 076°00'510.2
2017-May-22 07:30N 36°53' W 075°55'5 8.9
2017-May-22 06:59N 36°49' W 075°53'3 5.8
2017-May-22 06:30N 36°52' W 075°54'6 9.8
2017-May-22 05:56N 36°56' W 075°59'510.6
2017-May-22 05:28N 36°58' W 076°04'4 2.8
2017-May-22 03:58N 36°59' W 076°09'1 1.7
2017-May-22 03:14N 36°59' W 076°08'1 2.6
2017-May-22 03:00N 36°59' W 076°07'3 6.6
2017-May-22 02:30N 36°58' W 076°03'5 9.4
2017-May-22 02:00N 36°56' W 075°58'5 9.1
2017-May-22 01:31N 36°52' W 075°54'1 2.0
2017-May-22 00:51N 36°51' W 075°53'3 8.8
2017-May-22 00:30N 36°53' W 075°56'5 9.2
2017-May-22 00:00N 36°56' W 075°60'510.0
2017-May-21 23:30N 36°58' W 076°06'2 3.3
2017-May-21 23:00N 36°59' W 076°08'1 1.4
2017-May-21 22:29N 36°59' W 076°09'1 1.2
2017-May-21 21:56N 36°59' W 076°10'1 1.4
2017-May-21 21:31N 36°59' W 076°10'5 9.1
2017-May-21 21:01N 36°58' W 076°05'510.6
2017-May-21 20:30N 36°56' W 075°59'5 9.1
2017-May-21 20:00N 36°53' W 075°55'4 6.5
2017-May-21 19:27N 36°49' W 075°53'4 6.9
2017-May-21 18:53N 36°53' W 075°55'3 8.9
2017-May-21 18:30N 36°56' W 075°58'5 9.3
2017-May-21 18:01N 36°57' W 076°03'5 8.8
2017-May-21 17:28N 36°59' W 076°08'1 3.1
2017-May-21 17:00N 36°59' W 076°10'1 2.0
2017-May-21 16:30N 36°59' W 076°09'1 2.2
2017-May-21 16:00N 36°59' W 076°08'2 3.9
2017-May-21 15:30N 36°58' W 076°05'510.0
2017-May-21 15:00N 36°56' W 075°59'9 9.1
2017-May-21 14:01N 36°49' W 075°53'3 6.5
2017-May-21 13:30N 36°52' W 075°54'5 9.6
2017-May-21 13:00N 36°56' W 075°58'611.6
2017-May-21 12:29N 36°58' W 076°05'3 3.8
2017-May-21 11:49N 36°59' W 076°08'1 1.9
2017-May-21 11:30N 36°59' W 076°09'1 1.6
2017-May-21 11:00N 36°59' W 076°10'1 1.6
2017-May-21 10:28N 36°60' W 076°11'1 1.4
2017-May-21 10:00N 36°60' W 076°12'2 3.7
2017-May-21 09:26N 36°59' W 076°09'613.5
2017-May-21 09:00N 36°57' W 076°02'713.3
2017-May-21 08:30N 36°54' W 075°56'5 9.6
2017-May-21 07:59N 36°49' W 075°53'5 7.6
2017-May-21 07:23N 36°53' W 075°55'4 9.1
2017-May-21 06:59N 36°56' W 075°58'510.3
2017-May-21 06:29N 36°58' W 076°04'4 5.1
2017-May-21 05:48N 36°59' W 076°08'1 0.6
2017-May-21 03:47N 36°59' W 076°07'310.9
2017-May-21 03:30N 36°57' W 076°03'510.6
2017-May-21 03:00N 36°55' W 075°57'510.0
2017-May-21 02:30N 36°51' W 075°53'0 0.2
2017-May-21 01:51N 36°51' W 075°53'4 8.8
2017-May-21 01:22N 36°54' W 075°56'4 9.5
2017-May-21 01:00N 36°57' W 076°00'9 3.2
2017-May-20 22:09N 36°60' W 076°11'310.8
2017-May-20 21:54N 36°59' W 076°07'411.5
2017-May-20 21:30N 36°57' W 076°02'510.7
2017-May-20 21:00N 36°54' W 075°57'6 8.7
2017-May-20 20:22N 36°49' W 075°53'1 3.9
2017-May-20 20:00N 36°51' W 075°53'4 8.5
2017-May-20 19:29N 36°54' W 075°56'5 9.5
2017-May-20 19:00N 36°57' W 076°01'5 9.6
2017-May-20 18:30N 36°59' W 076°07'2 3.1
2017-May-20 17:50N 36°59' W 076°09'1 1.8
2017-May-20 17:29N 36°59' W 076°10'1 1.9
2017-May-20 16:44N 36°60' W 076°12'2 9.6
2017-May-20 16:30N 36°59' W 076°09'510.4
2017-May-20 16:00N 36°57' W 076°03'5 9.7
2017-May-20 15:28N 36°55' W 075°57'510.0
2017-May-20 15:00N 36°51' W 075°53'0 0.4
2017-May-20 14:21N 36°51' W 075°53'8 9.9
2017-May-20 13:30N 36°57' W 076°01'610.8
2017-May-20 12:59N 36°59' W 076°08'1 2.8
2017-May-20 12:27N 36°59' W 076°09'1 2.3
2017-May-20 12:00N 36°60' W 076°11'0 0.6
2017-May-20 11:12N 36°60' W 076°11'210.9
2017-May-20 11:00N 36°59' W 076°08'612.2
2017-May-20 10:30N 36°57' W 076°01'611.5
2017-May-20 10:00N 36°53' W 075°55'4 8.0
2017-May-20 09:30N 36°50' W 075°53'4 8.1
2017-May-20 09:00N 36°53' W 075°55'5 9.4
2017-May-20 08:30N 36°57' W 075°60'5 9.2
2017-May-20 07:58N 36°58' W 076°06'2 3.2
2017-May-20 07:16N 36°59' W 076°08'1 1.2
2017-May-20 06:47N 36°59' W 076°09'1 0.8
2017-May-20 05:25N 36°59' W 076°10'511.3
2017-May-20 05:00N 36°58' W 076°05'611.1
2017-May-20 04:30N 36°56' W 075°58'510.7
2017-May-20 04:00N 36°52' W 075°54'1 1.9
2017-May-20 03:21N 36°51' W 075°53'3 7.9
2017-May-20 03:00N 36°53' W 075°55'510.1
2017-May-20 02:30N 36°57' W 076°00'510.6
2017-May-20 02:00N 36°58' W 076°06'4 6.2
2017-May-20 01:25N 36°60' W 076°11'1 1.2
2017-May-20 00:22N 36°60' W 076°12'1 1.9
2017-May-20 00:00N 36°60' W 076°11'1 1.9
2017-May-19 23:30N 36°59' W 076°10'5 9.5
2017-May-19 23:00N 36°58' W 076°04'511.0
2017-May-19 22:30N 36°56' W 075°58'611.1
2017-May-19 22:00N 36°51' W 075°54'1 1.8
2017-May-19 21:26N 36°51' W 075°53'4 8.8
2017-May-19 21:00N 36°54' W 075°56'5 9.9
2017-May-19 20:30N 36°57' W 076°00'5 9.6
2017-May-19 20:00N 36°58' W 076°06'3 5.7
2017-May-19 19:29N 36°59' W 076°10'0 0.1
2017-May-19 16:53N 36°59' W 076°10'411.1
2017-May-19 16:30N 36°58' W 076°05'510.2
2017-May-19 16:00N 36°56' W 075°59'5 9.7
2017-May-19 15:30N 36°53' W 075°55'2 3.9
2017-May-19 14:56N 36°51' W 075°53'1010.8
2017-May-19 14:00N 36°57' W 076°03'610.1
2017-May-19 13:23N 36°59' W 076°10'1 0.3
2017-May-19 11:34N 36°59' W 076°11'0 1.6
2017-May-19 11:27N 36°59' W 076°11'2 5.0
2017-May-19 10:59N 36°59' W 076°08'510.3
2017-May-19 10:30N 36°57' W 076°02'611.2
2017-May-19 10:00N 36°54' W 075°56'510.0
2017-May-19 09:30N 36°50' W 075°53'3 5.2
2017-May-19 09:00N 36°52' W 075°54'5 9.9
2017-May-19 08:29N 36°56' W 075°59'10 3.3
2017-May-19 05:23N 36°59' W 076°10'512.2
2017-May-19 05:00N 36°58' W 076°05'611.5
2017-May-19 04:30N 36°56' W 075°58'510.4
2017-May-19 04:00N 36°52' W 075°54'1 1.5
2017-May-19 03:21N 36°51' W 075°53'4 9.7
2017-May-19 02:59N 36°54' W 075°56'5 9.8
2017-May-19 02:30N 36°57' W 076°01'510.1
2017-May-19 01:59N 36°59' W 076°07'3 1.7
2017-May-19 00:11N 36°60' W 076°11'0 2.2
2017-May-19 00:00N 36°59' W 076°10'4 8.0
2017-May-18 23:30N 36°58' W 076°05'510.9
2017-May-18 23:00N 36°56' W 075°59'4 8.9
2017-May-18 22:30N 36°53' W 075°55'4 9.0
2017-May-18 22:00N 36°49' W 075°53'3 5.5
2017-May-18 21:30N 36°52' W 075°54'5 9.9
2017-May-18 21:00N 36°56' W 075°58'510.8
2017-May-18 20:30N 36°58' W 076°04'5 9.7
2017-May-18 20:00N 36°59' W 076°10'1 0.5
2017-May-18 17:45N 36°60' W 076°11'0 1.9
2017-May-18 17:30N 36°60' W 076°10'4 7.2
2017-May-18 17:00N 36°58' W 076°06'611.2
2017-May-18 16:29N 36°56' W 075°59'510.0
2017-May-18 16:00N 36°53' W 075°55'4 7.4
2017-May-18 15:30N 36°50' W 075°53'4 7.5
2017-May-18 15:00N 36°53' W 075°55'1010.3
2017-May-18 14:00N 36°58' W 076°06'4 8.5
2017-May-18 13:29N 36°60' W 076°12'0 0.2
2017-May-18 12:00N 36°60' W 076°11'1 2.4
2017-May-18 11:30N 36°59' W 076°10'510.3
2017-May-18 11:00N 36°58' W 076°04'510.8
2017-May-18 10:30N 36°55' W 075°58'510.5
2017-May-18 10:00N 36°51' W 075°53'0 0.5
2017-May-18 09:25N 36°51' W 075°53'4 9.3
2017-May-18 09:00N 36°54' W 075°56'510.3
2017-May-18 08:30N 36°57' W 076°02'7 5.7
2017-May-18 07:14N 36°59' W 076°10'0 0.4
2017-May-18 06:59N 36°59' W 076°10'0 0.2
2017-May-18 05:24N 36°60' W 076°11'512.5
2017-May-18 05:00N 36°58' W 076°05'612.0
2017-May-18 04:30N 36°56' W 075°58'511.0
2017-May-18 04:00N 36°51' W 075°53'0 0.7
2017-May-18 03:22N 36°51' W 075°53'3 9.5
2017-May-18 03:00N 36°54' W 075°56'510.6
2017-May-18 02:30N 36°57' W 076°01'8 3.6
2017-May-18 00:17N 36°60' W 076°11'1 3.6
2017-May-18 00:00N 36°59' W 076°09'510.5
2017-May-17 23:30N 36°58' W 076°03'5 9.6
2017-May-17 23:00N 36°56' W 075°58'5 9.4
2017-May-17 22:30N 36°52' W 075°54'2 4.5
2017-May-17 21:59N 36°50' W 075°53'4 9.1
2017-May-17 21:30N 36°54' W 075°56'510.8
2017-May-17 21:00N 36°57' W 076°01'8 4.4
2017-May-17 19:08N 36°60' W 076°11'0 1.3
2017-May-17 19:00N 36°60' W 076°11'3 3.9
2017-May-17 18:19N 36°59' W 076°08'412.4
2017-May-17 18:00N 36°58' W 076°03'510.7
2017-May-17 17:30N 36°55' W 075°57'610.3
2017-May-17 16:57N 36°51' W 075°53'0 1.0
2017-May-17 16:28N 36°51' W 075°53'4 8.8
2017-May-17 16:00N 36°54' W 075°56'5 9.9
2017-May-17 15:30N 36°57' W 076°01'5 9.7
2017-May-17 15:00N 36°59' W 076°07'3 1.6
2017-May-17 13:09N 36°60' W 076°11'0 2.1
2017-May-17 12:58N 36°59' W 076°10'4 8.6
2017-May-17 12:30N 36°58' W 076°05'510.2
2017-May-17 11:59N 36°56' W 075°59'4 9.4
2017-May-17 11:30N 36°53' W 075°55'4 7.3
2017-May-17 11:00N 36°50' W 075°53'4 8.0
2017-May-17 10:30N 36°53' W 075°55'5 9.9
2017-May-17 10:00N 36°57' W 076°00'611.5
2017-May-17 09:30N 36°58' W 076°07'3 5.5
2017-May-17 08:55N 36°59' W 076°11'0 0.8
2017-May-17 08:30N 36°59' W 076°10'1 1.1
2017-May-17 08:00N 36°60' W 076°11'0 0.2
2017-May-17 07:30N 36°60' W 076°11'612.7
2017-May-17 07:00N 36°58' W 076°03'612.9
2017-May-17 06:31N 36°54' W 075°56'611.1
2017-May-17 06:00N 36°50' W 075°53'3 6.0
2017-May-17 05:30N 36°52' W 075°54'510.0
2017-May-17 05:00N 36°56' W 075°59'510.0
2017-May-17 04:28N 36°58' W 076°05'2 0.8
2017-May-17 02:03N 36°59' W 076°07'111.9
2017-May-17 02:00N 36°58' W 076°06'612.2
2017-May-17 01:31N 36°56' W 075°59'510.9
2017-May-17 01:00N 36°53' W 075°54'  
Track history (hours):
 
Tides and Currents Weather Stations Pressure Air Temp Water Temp Dewpoint Dewpoint Depression Visibility Wind Speed Wind Dir Waves Ship Positions

Stuyvesant

Owner: THE DUTRA GROUP, SAN RAFAEL, CA. More information available from US FCC via Universal Licensing System and Coast Guard Vessel Documentation Center.

Last reported at 2017-May-27 00:30 UTC. Time now 2017-May-27 00:37 UTC.
Position N 36°55' W 075°57'.

Length 122 m; draft 10 m.

Type: Dredging. MMSI: 368098000.

Date/timePositionNaut miles runAvg speedWind from/ knotsBaromVisibWave heightAir tempDewpointWater temp
2017-May-27 00:30N 36°55' W 075°57'511.0
2017-May-27 00:00N 36°51' W 075°53'0 0.3
2017-May-26 23:30N 36°51' W 075°53'510.2
2017-May-26 23:00N 36°55' W 075°57'611.8
2017-May-26 22:30N 36°58' W 076°04'6 9.9
2017-May-26 21:57N 36°59' W 076°10'1 1.6
2017-May-26 21:28N 36°59' W 076°09'0 0.9
2017-May-26 21:00N 36°59' W 076°09'1 1.2
2017-May-26 20:25N 36°59' W 076°08'10 8.6
2017-May-26 19:18N 36°58' W 076°20'1 3.8
2017-May-26 19:00N 36°57' W 076°21'0 0.0
2017-May-26 18:28N 36°57' W 076°21'0 0.0
2017-May-26 16:31N 36°57' W 076°21'0 0.1
2017-May-26 16:25N 36°57' W 076°21'0 0.0
2017-May-26 15:58N 36°57' W 076°21'0 0.0
2017-May-26 14:25N 36°57' W 076°21'0 0.0
2017-May-26 12:01N 36°57' W 076°21'0 0.0
2017-May-26 11:31N 36°57' W 076°21'0 0.0
2017-May-26 11:19N 36°57' W 076°21'0 0.1
2017-May-26 10:58N 36°57' W 076°21'0 0.0
2017-May-26 10:22N 36°57' W 076°21'0 0.5
2017-May-26 09:58N 36°58' W 076°21'8 6.9
2017-May-26 08:44N 36°59' W 076°10'2 8.5
2017-May-26 08:28N 36°59' W 076°08'4 8.3
2017-May-26 08:00N 36°57' W 076°03'4 8.0
2017-May-26 07:31N 36°56' W 075°58'4 8.1
2017-May-26 07:00N 36°53' W 075°55'4 7.9
2017-May-26 06:30N 36°49' W 075°53'3 5.1
2017-May-26 05:59N 36°52' W 075°54'5 9.4
2017-May-26 05:30N 36°55' W 075°58'610.7
2017-May-26 04:59N 36°58' W 076°04'3 5.8
2017-May-26 04:30N 36°59' W 076°07'2 0.9
2017-May-26 01:51N 36°59' W 076°10'3 9.5
2017-May-26 01:31N 36°58' W 076°06'610.9
2017-May-26 00:57N 36°56' W 075°59'510.9
2017-May-26 00:30N 36°53' W 075°55'4 7.8
2017-May-26 00:00N 36°49' W 075°53'4 8.4
2017-May-25 23:30N 36°53' W 075°55'4 8.9
2017-May-25 23:00N 36°56' W 075°59'5 9.3
2017-May-25 22:30N 36°58' W 076°05'5 9.2
2017-May-25 22:00N 36°59' W 076°10'0 0.2
2017-May-25 21:30N 36°59' W 076°10'1 1.4
2017-May-25 21:00N 36°59' W 076°09'1 1.8
2017-May-25 20:29N 36°59' W 076°08'1 1.8
2017-May-25 20:00N 36°59' W 076°07'4 8.4
2017-May-25 19:30N 36°57' W 076°02'5 9.1
2017-May-25 19:00N 36°55' W 075°57'510.2
2017-May-25 18:31N 36°51' W 075°53'1 1.3
2017-May-25 18:00N 36°51' W 075°53'511.2
2017-May-25 17:30N 36°55' W 075°57'612.4
2017-May-25 17:00N 36°58' W 076°04'510.7
2017-May-25 16:31N 36°59' W 076°10'1 1.2
2017-May-25 16:00N 36°59' W 076°09'1 1.6
2017-May-25 15:26N 36°59' W 076°08'1 2.2
2017-May-25 14:59N 36°59' W 076°09'7 7.0
2017-May-25 14:00N 36°57' W 076°01'612.5
2017-May-25 13:30N 36°53' W 075°55'4 8.6
2017-May-25 13:00N 36°49' W 075°53'4 8.4
2017-May-25 12:30N 36°53' W 075°55'4 8.7
2017-May-25 12:01N 36°56' W 075°59'4 7.6
2017-May-25 11:30N 36°57' W 076°03'5 8.3
2017-May-25 10:53N 36°59' W 076°09'0 1.3
2017-May-25 10:31N 36°59' W 076°10'1 2.0
2017-May-25 10:01N 36°59' W 076°09'1 2.4
2017-May-25 09:30N 36°59' W 076°07'4 8.4
2017-May-25 09:01N 36°57' W 076°02'510.3
2017-May-25 08:30N 36°54' W 075°57'6 9.3
2017-May-25 07:53N 36°50' W 075°53'2 4.0
2017-May-25 07:25N 36°51' W 075°54'4 9.5
2017-May-25 07:00N 36°54' W 075°57'510.6
2017-May-25 06:30N 36°57' W 076°02'5 3.3
2017-May-25 05:04N 36°59' W 076°08'0 1.1
2017-May-25 05:00N 36°59' W 076°08'1 1.9
2017-May-25 04:27N 36°59' W 076°09'1 1.9
2017-May-25 04:00N 36°59' W 076°10'3 6.8
2017-May-25 03:30N 36°58' W 076°06'611.9
2017-May-25 03:00N 36°56' W 075°59'612.0
2017-May-25 02:31N 36°52' W 075°54'1 1.7
2017-May-25 02:00N 36°51' W 075°53'5 9.7
2017-May-25 01:30N 36°55' W 075°57'5 9.9
2017-May-25 01:00N 36°57' W 076°03'7 9.0
2017-May-25 00:14N 36°60' W 076°11'0 1.2
2017-May-25 00:00N 36°59' W 076°10'1 2.1
2017-May-24 23:30N 36°59' W 076°09'1 1.3
2017-May-24 22:58N 36°59' W 076°10'3 7.5
2017-May-24 22:31N 36°58' W 076°06'612.0
2017-May-24 22:00N 36°56' W 075°59'510.3
2017-May-24 21:30N 36°52' W 075°54'3 6.2
2017-May-24 21:00N 36°50' W 075°53'5 9.1
2017-May-24 20:31N 36°54' W 075°56'510.1
2017-May-24 20:00N 36°57' W 076°01'510.1
2017-May-24 19:29N 36°58' W 076°07'3 4.8
2017-May-24 18:56N 36°59' W 076°10'1 1.6
2017-May-24 18:30N 36°59' W 076°09'1 1.6
2017-May-24 18:01N 36°59' W 076°10'1 1.2
2017-May-24 17:30N 36°59' W 076°09'1 1.9
2017-May-24 17:00N 36°59' W 076°08'1 2.1
2017-May-24 16:30N 36°59' W 076°07'4 7.5
2017-May-24 16:00N 36°57' W 076°03'5 9.9
2017-May-24 15:31N 36°55' W 075°57'5 9.6
2017-May-24 15:00N 36°51' W 075°53'0 0.2
2017-May-24 14:25N 36°51' W 075°53'9 9.6
2017-May-24 13:30N 36°57' W 076°01'5 9.3
2017-May-24 13:00N 36°58' W 076°07'2 3.9
2017-May-24 12:31N 36°59' W 076°09'1 1.5
2017-May-24 11:58N 36°59' W 076°10'1 2.1
2017-May-24 11:25N 36°59' W 076°09'0 1.0
2017-May-24 10:58N 36°59' W 076°09'0 1.0
2017-May-24 10:30N 36°59' W 076°10'611.6
2017-May-24 10:00N 36°57' W 076°03'510.8
2017-May-24 09:30N 36°55' W 075°57'5 9.8
2017-May-24 08:58N 36°51' W 075°53'1 0.9
2017-May-24 08:17N 36°51' W 075°53'3 9.4
2017-May-24 08:00N 36°53' W 075°55'510.6
2017-May-24 07:30N 36°57' W 076°00'510.5
2017-May-24 06:59N 36°58' W 076°07'2 2.1
2017-May-24 05:49N 36°59' W 076°10'1 1.9
2017-May-24 05:30N 36°59' W 076°09'1 2.1
2017-May-24 04:56N 36°59' W 076°08'2 3.5
2017-May-24 04:30N 36°58' W 076°06'510.0
2017-May-24 04:00N 36°57' W 075°60'5 9.6
2017-May-24 03:29N 36°53' W 075°55'4 8.2
2017-May-24 02:59N 36°50' W 075°53'2 4.3
2017-May-24 02:30N 36°52' W 075°54'4 8.1
2017-May-24 02:00N 36°55' W 075°57'5 9.4
2017-May-24 01:30N 36°57' W 076°02'6 4.3
2017-May-24 00:13N 36°59' W 076°08'0 1.4
2017-May-24 00:00N 36°59' W 076°09'1 1.6
2017-May-23 23:30N 36°59' W 076°10'3 6.2
2017-May-23 23:01N 36°58' W 076°06'612.8
2017-May-23 22:30N 36°56' W 075°58'611.9
2017-May-23 22:00N 36°52' W 075°54'1 1.0
2017-May-23 21:24N 36°51' W 075°53'3 8.1
2017-May-23 21:00N 36°54' W 075°56'4 8.3
2017-May-23 20:30N 36°56' W 075°60'4 9.2
2017-May-23 20:00N 36°58' W 076°05'4 8.5
2017-May-23 19:29N 36°59' W 076°10'1 1.2
2017-May-23 19:00N 36°59' W 076°10'1 1.9
2017-May-23 18:30N 36°59' W 076°08'1 2.0
2017-May-23 18:00N 36°59' W 076°07'3 6.1
2017-May-23 17:30N 36°58' W 076°04'510.0
2017-May-23 17:00N 36°55' W 075°58'510.2
2017-May-23 16:30N 36°52' W 075°54'2 3.9
2017-May-23 16:00N 36°50' W 075°53'4 8.8
2017-May-23 15:30N 36°54' W 075°56'510.9
2017-May-23 15:00N 36°57' W 076°01'510.0
2017-May-23 14:29N 36°59' W 076°07'0 0.4
2017-May-23 13:31N 36°59' W 076°08'1 1.5
2017-May-23 13:00N 36°59' W 076°09'1 1.5
2017-May-23 12:31N 36°59' W 076°10'0 0.6
2017-May-23 12:00N 36°59' W 076°09'612.3
2017-May-23 11:30N 36°57' W 076°02'611.3
2017-May-23 11:01N 36°54' W 075°56'5 9.7
2017-May-23 10:30N 36°50' W 075°53'2 4.9
2017-May-23 10:00N 36°52' W 075°54'5 9.2
2017-May-23 09:27N 36°56' W 075°58'510.2
2017-May-23 09:00N 36°58' W 076°04'3 1.4
2017-May-23 06:45N 36°59' W 076°08'310.1
2017-May-23 06:29N 36°58' W 076°04'5 9.6
2017-May-23 06:00N 36°56' W 075°59'4 8.0
2017-May-23 05:30N 36°53' W 075°55'4 8.1
2017-May-23 05:00N 36°50' W 075°53'2 2.9
2017-May-23 04:23N 36°52' W 075°54'4 9.5
2017-May-23 04:00N 36°54' W 075°57'511.0
2017-May-23 03:31N 36°57' W 076°02'7 2.4
2017-May-23 00:45N 36°59' W 076°10'4 9.8
2017-May-23 00:23N 36°58' W 076°06'411.5
2017-May-23 00:00N 36°57' W 076°01'510.8
2017-May-22 23:30N 36°53' W 075°55'4 8.8
2017-May-22 23:00N 36°50' W 075°53'3 6.0
2017-May-22 22:26N 36°53' W 075°55'4 9.5
2017-May-22 22:00N 36°56' W 075°58'5 9.6
2017-May-22 21:30N 36°58' W 076°04'5 3.0
2017-May-22 19:46N 36°59' W 076°10'2 7.7
2017-May-22 19:29N 36°59' W 076°07'712.2
2017-May-22 18:56N 36°56' W 075°59'510.5
2017-May-22 18:30N 36°53' W 075°55'4 7.8
2017-May-22 17:59N 36°50' W 075°53'4 7.0
2017-May-22 17:29N 36°53' W 075°55'510.4
2017-May-22 17:00N 36°56' W 075°59'611.0
2017-May-22 16:25N 36°58' W 076°07'2 3.3
2017-May-22 15:53N 36°59' W 076°09'1 2.2
2017-May-22 15:23N 36°59' W 076°10'1 1.3
2017-May-22 14:59N 36°59' W 076°10'3 2.9
2017-May-22 13:59N 36°58' W 076°06'510.2
2017-May-22 13:30N 36°57' W 076°00'610.6
2017-May-22 12:59N 36°53' W 075°55'1 1.5
2017-May-22 12:03N 36°52' W 075°54'2 8.7
2017-May-22 11:48N 36°53' W 075°56'3 9.3
2017-May-22 11:30N 36°56' W 075°58'5 9.9
2017-May-22 10:58N 36°58' W 076°04'3 5.4
2017-May-22 10:29N 36°59' W 076°07'1 0.3
2017-May-22 08:31N 36°59' W 076°08'011.7
2017-May-22 08:29N 36°59' W 076°07'612.4
2017-May-22 07:59N 36°56' W 076°00'510.2
2017-May-22 07:30N 36°53' W 075°55'5 8.9
2017-May-22 06:59N 36°49' W 075°53'3 5.8
2017-May-22 06:30N 36°52' W 075°54'6 9.8
2017-May-22 05:56N 36°56' W 075°59'510.6
2017-May-22 05:28N 36°58' W 076°04'4 2.8
2017-May-22 03:58N 36°59' W 076°09'1 1.7
2017-May-22 03:14N 36°59' W 076°08'1 2.6
2017-May-22 03:00N 36°59' W 076°07'3 6.6
2017-May-22 02:30N 36°58' W 076°03'5 9.4
2017-May-22 02:00N 36°56' W 075°58'5 9.1
2017-May-22 01:31N 36°52' W 075°54'1 2.0
2017-May-22 00:51N 36°51' W 075°53'3 8.8
2017-May-22 00:30N 36°53' W 075°56'5 9.2
2017-May-22 00:00N 36°56' W 075°60'510.0
2017-May-21 23:30N 36°58' W 076°06'2 3.3
2017-May-21 23:00N 36°59' W 076°08'1 1.4
2017-May-21 22:29N 36°59' W 076°09'1 1.2
2017-May-21 21:56N 36°59' W 076°10'1 1.4
2017-May-21 21:31N 36°59' W 076°10'5 9.1
2017-May-21 21:01N 36°58' W 076°05'510.6
2017-May-21 20:30N 36°56' W 075°59'5 9.1
2017-May-21 20:00N 36°53' W 075°55'4 6.5
2017-May-21 19:27N 36°49' W 075°53'4 6.9
2017-May-21 18:53N 36°53' W 075°55'3 8.9
2017-May-21 18:30N 36°56' W 075°58'5 9.3
2017-May-21 18:01N 36°57' W 076°03'5 8.8
2017-May-21 17:28N 36°59' W 076°08'1 3.1
2017-May-21 17:00N 36°59' W 076°10'1 2.0
2017-May-21 16:30N 36°59' W 076°09'1 2.2
2017-May-21 16:00N 36°59' W 076°08'2 3.9
2017-May-21 15:30N 36°58' W 076°05'510.0
2017-May-21 15:00N 36°56' W 075°59'9 9.1
2017-May-21 14:01N 36°49' W 075°53'3 6.5
2017-May-21 13:30N 36°52' W 075°54'5 9.6
2017-May-21 13:00N 36°56' W 075°58'611.6
2017-May-21 12:29N 36°58' W 076°05'3 3.8
2017-May-21 11:49N 36°59' W 076°08'1 1.9
2017-May-21 11:30N 36°59' W 076°09'1 1.6
2017-May-21 11:00N 36°59' W 076°10'1 1.6
2017-May-21 10:28N 36°60' W 076°11'1 1.4
2017-May-21 10:00N 36°60' W 076°12'2 3.7
2017-May-21 09:26N 36°59' W 076°09'613.5
2017-May-21 09:00N 36°57' W 076°02'713.3
2017-May-21 08:30N 36°54' W 075°56'5 9.6
2017-May-21 07:59N 36°49' W 075°53'5 7.6
2017-May-21 07:23N 36°53' W 075°55'4 9.1
2017-May-21 06:59N 36°56' W 075°58'510.3
2017-May-21 06:29N 36°58' W 076°04'4 5.1
2017-May-21 05:48N 36°59' W 076°08'1 0.6
2017-May-21 03:47N 36°59' W 076°07'310.9
2017-May-21 03:30N 36°57' W 076°03'510.6
2017-May-21 03:00N 36°55' W 075°57'510.0
2017-May-21 02:30N 36°51' W 075°53'0 0.2
2017-May-21 01:51N 36°51' W 075°53'4 8.8
2017-May-21 01:22N 36°54' W 075°56'4 9.5
2017-May-21 01:00N 36°57' W 076°00'9 3.2
2017-May-20 22:09N 36°60' W 076°11'310.8
2017-May-20 21:54N 36°59' W 076°07'411.5
2017-May-20 21:30N 36°57' W 076°02'510.7
2017-May-20 21:00N 36°54' W 075°57'6 8.7
2017-May-20 20:22N 36°49' W 075°53'1 3.9
2017-May-20 20:00N 36°51' W 075°53'4 8.5
2017-May-20 19:29N 36°54' W 075°56'5 9.5
2017-May-20 19:00N 36°57' W 076°01'5 9.6
2017-May-20 18:30N 36°59' W 076°07'2 3.1
2017-May-20 17:50N 36°59' W 076°09'1 1.8
2017-May-20 17:29N 36°59' W 076°10'1 1.9
2017-May-20 16:44N 36°60' W 076°12'2 9.6
2017-May-20 16:30N 36°59' W 076°09'510.4
2017-May-20 16:00N 36°57' W 076°03'5 9.7
2017-May-20 15:28N 36°55' W 075°57'510.0
2017-May-20 15:00N 36°51' W 075°53'0 0.4
2017-May-20 14:21N 36°51' W 075°53'8 9.9
2017-May-20 13:30N 36°57' W 076°01'610.8
2017-May-20 12:59N 36°59' W 076°08'1 2.8
2017-May-20 12:27N 36°59' W 076°09'1 2.3
2017-May-20 12:00N 36°60' W 076°11'0 0.6
2017-May-20 11:12N 36°60' W 076°11'210.9
2017-May-20 11:00N 36°59' W 076°08'612.2
2017-May-20 10:30N 36°57' W 076°01'611.5
2017-May-20 10:00N 36°53' W 075°55'4 8.0
2017-May-20 09:30N 36°50' W 075°53'4 8.1
2017-May-20 09:00N 36°53' W 075°55'5 9.4
2017-May-20 08:30N 36°57' W 075°60'5 9.2
2017-May-20 07:58N 36°58' W 076°06'2 3.2
2017-May-20 07:16N 36°59' W 076°08'1 1.2
2017-May-20 06:47N 36°59' W 076°09'1 0.8
2017-May-20 05:25N 36°59' W 076°10'511.3
2017-May-20 05:00N 36°58' W 076°05'611.1
2017-May-20 04:30N 36°56' W 075°58'510.7
2017-May-20 04:00N 36°52' W 075°54'1 1.9
2017-May-20 03:21N 36°51' W 075°53'3 7.9
2017-May-20 03:00N 36°53' W 075°55'510.1
2017-May-20 02:30N 36°57' W 076°00'510.6
2017-May-20 02:00N 36°58' W 076°06'4 6.2
2017-May-20 01:25N 36°60' W 076°11'1 1.2
2017-May-20 00:22N 36°60' W 076°12'1 1.9
2017-May-20 00:00N 36°60' W 076°11'1 1.9
2017-May-19 23:30N 36°59' W 076°10'5 9.5
2017-May-19 23:00N 36°58' W 076°04'511.0
2017-May-19 22:30N 36°56' W 075°58'611.1
2017-May-19 22:00N 36°51' W 075°54'1 1.8
2017-May-19 21:26N 36°51' W 075°53'4 8.8
2017-May-19 21:00N 36°54' W 075°56'5 9.9
2017-May-19 20:30N 36°57' W 076°00'5 9.6
2017-May-19 20:00N 36°58' W 076°06'3 5.7
2017-May-19 19:29N 36°59' W 076°10'0 0.1
2017-May-19 16:53N 36°59' W 076°10'411.1
2017-May-19 16:30N 36°58' W 076°05'510.2
2017-May-19 16:00N 36°56' W 075°59'5 9.7
2017-May-19 15:30N 36°53' W 075°55'2 3.9
2017-May-19 14:56N 36°51' W 075°53'1010.8
2017-May-19 14:00N 36°57' W 076°03'610.1
2017-May-19 13:23N 36°59' W 076°10'1 0.3
2017-May-19 11:34N 36°59' W 076°11'0 1.6
2017-May-19 11:27N 36°59' W 076°11'2 5.0
2017-May-19 10:59N 36°59' W 076°08'510.3
2017-May-19 10:30N 36°57' W 076°02'611.2
2017-May-19 10:00N 36°54' W 075°56'510.0
2017-May-19 09:30N 36°50' W 075°53'3 5.2
2017-May-19 09:00N 36°52' W 075°54'5 9.9
2017-May-19 08:29N 36°56' W 075°59'10 3.3
2017-May-19 05:23N 36°59' W 076°10'512.2
2017-May-19 05:00N 36°58' W 076°05'611.5
2017-May-19 04:30N 36°56' W 075°58'510.4
2017-May-19 04:00N 36°52' W 075°54'1 1.5
2017-May-19 03:21N 36°51' W 075°53'4 9.7
2017-May-19 02:59N 36°54' W 075°56'5 9.8
2017-May-19 02:30N 36°57' W 076°01'510.1
2017-May-19 01:59N 36°59' W 076°07'3 1.7
2017-May-19 00:11N 36°60' W 076°11'0 2.2
2017-May-19 00:00N 36°59' W 076°10'4 8.0
2017-May-18 23:30N 36°58' W 076°05'510.9
2017-May-18 23:00N 36°56' W 075°59'4 8.9
2017-May-18 22:30N 36°53' W 075°55'4 9.0
2017-May-18 22:00N 36°49' W 075°53'3 5.5
2017-May-18 21:30N 36°52' W 075°54'5 9.9
2017-May-18 21:00N 36°56' W 075°58'510.8
2017-May-18 20:30N 36°58' W 076°04'5 9.7
2017-May-18 20:00N 36°59' W 076°10'1 0.5
2017-May-18 17:45N 36°60' W 076°11'0 1.9
2017-May-18 17:30N 36°60' W 076°10'4 7.2
2017-May-18 17:00N 36°58' W 076°06'611.2
2017-May-18 16:29N 36°56' W 075°59'510.0
2017-May-18 16:00N 36°53' W 075°55'4 7.4
2017-May-18 15:30N 36°50' W 075°53'4 7.5
2017-May-18 15:00N 36°53' W 075°55'1010.3
2017-May-18 14:00N 36°58' W 076°06'4 8.5
2017-May-18 13:29N 36°60' W 076°12'0 0.2
2017-May-18 12:00N 36°60' W 076°11'1 2.4
2017-May-18 11:30N 36°59' W 076°10'510.3
2017-May-18 11:00N 36°58' W 076°04'510.8
2017-May-18 10:30N 36°55' W 075°58'510.5
2017-May-18 10:00N 36°51' W 075°53'0 0.5
2017-May-18 09:25N 36°51' W 075°53'4 9.3
2017-May-18 09:00N 36°54' W 075°56'510.3
2017-May-18 08:30N 36°57' W 076°02'7 5.7
2017-May-18 07:14N 36°59' W 076°10'0 0.4
2017-May-18 06:59N 36°59' W 076°10'0 0.2
2017-May-18 05:24N 36°60' W 076°11'512.5
2017-May-18 05:00N 36°58' W 076°05'612.0
2017-May-18 04:30N 36°56' W 075°58'511.0
2017-May-18 04:00N 36°51' W 075°53'0 0.7
2017-May-18 03:22N 36°51' W 075°53'3 9.5
2017-May-18 03:00N 36°54' W 075°56'510.6
2017-May-18 02:30N 36°57' W 076°01'8 3.6
2017-May-18 00:17N 36°60' W 076°11'1 3.6
2017-May-18 00:00N 36°59' W 076°09'510.5
2017-May-17 23:30N 36°58' W 076°03'5 9.6
2017-May-17 23:00N 36°56' W 075°58'5 9.4
2017-May-17 22:30N 36°52' W 075°54'2 4.5
2017-May-17 21:59N 36°50' W 075°53'4 9.1
2017-May-17 21:30N 36°54' W 075°56'510.8
2017-May-17 21:00N 36°57' W 076°01'8 4.4
2017-May-17 19:08N 36°60' W 076°11'0 1.3
2017-May-17 19:00N 36°60' W 076°11'3 3.9
2017-May-17 18:19N 36°59' W 076°08'412.4
2017-May-17 18:00N 36°58' W 076°03'510.7
2017-May-17 17:30N 36°55' W 075°57'610.3
2017-May-17 16:57N 36°51' W 075°53'0 1.0
2017-May-17 16:28N 36°51' W 075°53'4 8.8
2017-May-17 16:00N 36°54' W 075°56'5 9.9
2017-May-17 15:30N 36°57' W 076°01'5 9.7
2017-May-17 15:00N 36°59' W 076°07'3 1.6
2017-May-17 13:09N 36°60' W 076°11'0 2.1
2017-May-17 12:58N 36°59' W 076°10'4 8.6
2017-May-17 12:30N 36°58' W 076°05'510.2
2017-May-17 11:59N 36°56' W 075°59'4 9.4
2017-May-17 11:30N 36°53' W 075°55'4 7.3
2017-May-17 11:00N 36°50' W 075°53'4 8.0
2017-May-17 10:30N 36°53' W 075°55'5 9.9
2017-May-17 10:00N 36°57' W 076°00'611.5
2017-May-17 09:30N 36°58' W 076°07'3 5.5
2017-May-17 08:55N 36°59' W 076°11'0 0.8
2017-May-17 08:30N 36°59' W 076°10'1 1.1
2017-May-17 08:00N 36°60' W 076°11'0 0.2
2017-May-17 07:30N 36°60' W 076°11'612.7
2017-May-17 07:00N 36°58' W 076°03'612.9
2017-May-17 06:31N 36°54' W 075°56'611.1
2017-May-17 06:00N 36°50' W 075°53'3 6.0
2017-May-17 05:30N 36°52' W 075°54'510.0
2017-May-17 05:00N 36°56' W 075°59'510.0
2017-May-17 04:28N 36°58' W 076°05'2 0.8
2017-May-17 02:03N 36°59' W 076°07'111.9
2017-May-17 02:00N 36°58' W 076°06'612.2
2017-May-17 01:31N 36°56' W 075°59'510.9
2017-May-17 01:00N 36°53' W 075°54'  

Dump ship's entire track history